SRC3699 SKBO-SKCG
Flight info
| Callsign | SRC3699 |
|---|---|
| Flight time | 1h 12m |
| Altitude | 32000 |
| Route | DANSA4R GIKPU UQ120 DIBAM UW10 UGREB UGREB3B |
| Aircraft | C750/M-SBDE3FGHRWXY/S |
Departure
| Time | 2026-04-22 03:18 |
|---|---|
| Airport | El Dorado International Airport (SKBO) |
Arrival
| Time | 2026-04-22 04:30 |
|---|---|
| Airport | Rafael Nuñez International Airport (SKCG) |
| Time | Latitude | Longitude | Altitude | Speed | Heading |
|---|---|---|---|---|---|
| 2026-04-22 02:48 | 4.71044 | -74.15299 | 8360 ft | 0 kts | 218° |
| 2026-04-22 03:14 | 4.71043 | -74.15299 | 8359 ft | 0 kts | 218° |
| 2026-04-22 03:15 | 4.71033 | -74.15321 | 8359 ft | 4 kts | 313° |
| 2026-04-22 03:15 | 4.71085 | -74.15324 | 8358 ft | 11 kts | 28° |
| 2026-04-22 03:15 | 4.71155 | -74.15288 | 8358 ft | 10 kts | 355° |
| 2026-04-22 03:15 | 4.71218 | -74.15293 | 8357 ft | 8 kts | 25° |
| 2026-04-22 03:16 | 4.71257 | -74.15262 | 8357 ft | 6 kts | 45° |
| 2026-04-22 03:16 | 4.71288 | -74.15231 | 8358 ft | 5 kts | 46° |
| 2026-04-22 03:16 | 4.71311 | -74.15206 | 8358 ft | 3 kts | 47° |
| 2026-04-22 03:16 | 4.71321 | -74.15190 | 8359 ft | 2 kts | 80° |
| 2026-04-22 03:17 | 4.71284 | -74.15131 | 8360 ft | 19 kts | 139° |
| 2026-04-22 03:17 | 4.71118 | -74.14915 | 8362 ft | 74 kts | 129° |
| 2026-04-22 03:17 | 4.70643 | -74.14283 | 8364 ft | 151 kts | 127° |
| 2026-04-22 03:17 | 4.69865 | -74.13301 | 8675 ft | 194 kts | 128° |
| 2026-04-22 03:18 | 4.69044 | -74.12101 | 9210 ft | 221 kts | 114° |
| 2026-04-22 03:18 | 4.68173 | -74.10842 | 9656 ft | 226 kts | 143° |
| 2026-04-22 03:18 | 4.66698 | -74.10368 | 10120 ft | 226 kts | 185° |
| 2026-04-22 03:18 | 4.65299 | -74.11002 | 10604 ft | 224 kts | 228° |
| 2026-04-22 03:19 | 4.64694 | -74.12386 | 11072 ft | 222 kts | 265° |
| 2026-04-22 03:19 | 4.64456 | -74.13917 | 11544 ft | 224 kts | 254° |
| 2026-04-22 03:19 | 4.63911 | -74.15391 | 11984 ft | 227 kts | 249° |
| 2026-04-22 03:19 | 4.63285 | -74.16876 | 12417 ft | 231 kts | 248° |
| 2026-04-22 03:20 | 4.62645 | -74.18339 | 12842 ft | 233 kts | 248° |
| 2026-04-22 03:20 | 4.61980 | -74.19845 | 13269 ft | 236 kts | 248° |
| 2026-04-22 03:20 | 4.61429 | -74.21384 | 13673 ft | 236 kts | 260° |
| 2026-04-22 03:20 | 4.61136 | -74.23011 | 14093 ft | 237 kts | 261° |
| 2026-04-22 03:21 | 4.60822 | -74.24625 | 14501 ft | 238 kts | 261° |
| 2026-04-22 03:21 | 4.60510 | -74.26247 | 14894 ft | 239 kts | 260° |
| 2026-04-22 03:21 | 4.59863 | -74.27771 | 15274 ft | 242 kts | 230° |
| 2026-04-22 03:21 | 4.58681 | -74.28968 | 15707 ft | 240 kts | 227° |
| 2026-04-22 03:22 | 4.57508 | -74.30183 | 16067 ft | 248 kts | 227° |
| 2026-04-22 03:22 | 4.56287 | -74.31447 | 16489 ft | 256 kts | 227° |
| 2026-04-22 03:22 | 4.55023 | -74.32748 | 16907 ft | 265 kts | 227° |
| 2026-04-22 03:22 | 4.53735 | -74.34080 | 17320 ft | 272 kts | 227° |
| 2026-04-22 03:23 | 4.52348 | -74.35432 | 17721 ft | 281 kts | 216° |
| 2026-04-22 03:23 | 4.50592 | -74.36336 | 18166 ft | 286 kts | 207° |
| 2026-04-22 03:23 | 4.48832 | -74.37330 | 18584 ft | 292 kts | 211° |
| 2026-04-22 03:23 | 4.47054 | -74.38373 | 19000 ft | 299 kts | 211° |
| 2026-04-22 03:24 | 4.45251 | -74.39434 | 19414 ft | 304 kts | 211° |
| 2026-04-22 03:24 | 4.43420 | -74.40516 | 19833 ft | 309 kts | 211° |
| 2026-04-22 03:24 | 4.41535 | -74.41629 | 20252 ft | 314 kts | 211° |
| 2026-04-22 03:24 | 4.39647 | -74.42744 | 20662 ft | 319 kts | 211° |
| 2026-04-22 03:25 | 4.37714 | -74.43885 | 21083 ft | 323 kts | 211° |
| 2026-04-22 03:25 | 4.35771 | -74.45033 | 21504 ft | 326 kts | 211° |
| 2026-04-22 03:25 | 4.33796 | -74.46188 | 21922 ft | 329 kts | 208° |
| 2026-04-22 03:25 | 4.31598 | -74.46788 | 22324 ft | 332 kts | 180° |
| 2026-04-22 03:26 | 4.29358 | -74.46246 | 22803 ft | 332 kts | 150° |
| 2026-04-22 03:26 | 4.27673 | -74.44727 | 23282 ft | 330 kts | 122° |
| 2026-04-22 03:26 | 4.26906 | -74.42595 | 23774 ft | 328 kts | 97° |
| 2026-04-22 03:26 | 4.26630 | -74.40337 | 24254 ft | 328 kts | 97° |
| 2026-04-22 03:27 | 4.26282 | -74.38081 | 24703 ft | 329 kts | 98° |
| 2026-04-22 03:27 | 4.25922 | -74.35822 | 25150 ft | 331 kts | 99° |
| 2026-04-22 03:27 | 4.25551 | -74.33546 | 25596 ft | 331 kts | 99° |
| 2026-04-22 03:27 | 4.25177 | -74.31273 | 26040 ft | 332 kts | 99° |
| 2026-04-22 03:28 | 4.24801 | -74.28992 | 26486 ft | 333 kts | 99° |
| 2026-04-22 03:28 | 4.24425 | -74.26704 | 26935 ft | 333 kts | 99° |
| 2026-04-22 03:28 | 4.24047 | -74.24421 | 27378 ft | 333 kts | 100° |
| 2026-04-22 03:28 | 4.23675 | -74.22163 | 27820 ft | 332 kts | 100° |
| 2026-04-22 03:29 | 4.23297 | -74.19872 | 28272 ft | 332 kts | 100° |
| 2026-04-22 03:29 | 4.22925 | -74.17626 | 28711 ft | 331 kts | 100° |
| 2026-04-22 03:29 | 4.22550 | -74.15346 | 29167 ft | 329 kts | 100° |
| 2026-04-22 03:29 | 4.22178 | -74.13104 | 29616 ft | 328 kts | 100° |
| 2026-04-22 03:30 | 4.21807 | -74.10849 | 30072 ft | 326 kts | 100° |
| 2026-04-22 03:30 | 4.21440 | -74.08627 | 30522 ft | 324 kts | 100° |
| 2026-04-22 03:30 | 4.21075 | -74.06419 | 30976 ft | 322 kts | 100° |
| 2026-04-22 03:30 | 4.20710 | -74.04215 | 31431 ft | 320 kts | 100° |
| 2026-04-22 03:31 | 4.20350 | -74.02026 | 31891 ft | 317 kts | 100° |
| 2026-04-22 03:31 | 4.19983 | -73.99828 | 32070 ft | 323 kts | 100° |
| 2026-04-22 03:31 | 4.19798 | -73.97546 | 32080 ft | 335 kts | 83° |
| 2026-04-22 03:31 | 4.20641 | -73.95329 | 32135 ft | 348 kts | 56° |
| 2026-04-22 03:32 | 4.22496 | -73.93662 | 32142 ft | 363 kts | 30° |
| 2026-04-22 03:32 | 4.24953 | -73.92948 | 32139 ft | 378 kts | 6° |
| 2026-04-22 03:32 | 4.30364 | -73.92339 | 32107 ft | 396 kts | 12° |
| 2026-04-22 03:33 | 4.35938 | -73.91268 | 32109 ft | 413 kts | 13° |
| 2026-04-22 03:33 | 4.41709 | -73.90153 | 32106 ft | 429 kts | 13° |
| 2026-04-22 03:34 | 4.47694 | -73.88993 | 32094 ft | 443 kts | 12° |
| 2026-04-22 03:34 | 4.53892 | -73.88032 | 32055 ft | 457 kts | 359° |
| 2026-04-22 03:35 | 4.57052 | -73.88606 | 32123 ft | 463 kts | 347° |
| 2026-04-22 03:35 | 4.60236 | -73.89313 | 32103 ft | 468 kts | 348° |
| 2026-04-22 03:35 | 4.66671 | -73.90766 | 32077 ft | 477 kts | 348° |
| 2026-04-22 03:36 | 4.73252 | -73.92245 | 32044 ft | 485 kts | 348° |
| 2026-04-22 03:36 | 4.79932 | -73.93744 | 32027 ft | 492 kts | 348° |
| 2026-04-22 03:37 | 4.86654 | -73.95255 | 32032 ft | 498 kts | 348° |
| 2026-04-22 03:37 | 4.93518 | -73.96801 | 32078 ft | 501 kts | 348° |
| 2026-04-22 03:38 | 5.00372 | -73.98283 | 32078 ft | 504 kts | 353° |
| 2026-04-22 03:38 | 5.03901 | -73.98162 | 32120 ft | 501 kts | 12° |
| 2026-04-22 03:38 | 5.07271 | -73.97294 | 32130 ft | 502 kts | 14° |
| 2026-04-22 03:39 | 5.14116 | -73.95610 | 32112 ft | 505 kts | 15° |
| 2026-04-22 03:39 | 5.20950 | -73.93907 | 32137 ft | 507 kts | 15° |
| 2026-04-22 03:40 | 5.27825 | -73.92193 | 32149 ft | 509 kts | 15° |
| 2026-04-22 03:40 | 5.34768 | -73.90461 | 32088 ft | 512 kts | 15° |
| 2026-04-22 03:41 | 5.41720 | -73.88731 | 32044 ft | 515 kts | 15° |
| 2026-04-22 03:41 | 5.48710 | -73.86987 | 31993 ft | 517 kts | 15° |
| 2026-04-22 03:42 | 5.55745 | -73.85329 | 31976 ft | 518 kts | 12° |
| 2026-04-22 03:42 | 5.62872 | -73.83879 | 31969 ft | 519 kts | 12° |
| 2026-04-22 03:43 | 5.69969 | -73.82417 | 31967 ft | 520 kts | 12° |
| 2026-04-22 03:43 | 5.77120 | -73.80945 | 31959 ft | 520 kts | 13° |
| 2026-04-22 03:44 | 5.84221 | -73.79478 | 31954 ft | 521 kts | 13° |
| 2026-04-22 03:44 | 5.91364 | -73.78011 | 31935 ft | 522 kts | 13° |
| 2026-04-22 03:45 | 5.98547 | -73.76527 | 31958 ft | 522 kts | 13° |
| 2026-04-22 03:45 | 6.05740 | -73.75506 | 31920 ft | 524 kts | 3° |
| 2026-04-22 03:46 | 6.13098 | -73.75053 | 31864 ft | 525 kts | 4° |
| 2026-04-22 03:46 | 6.20420 | -73.74587 | 31798 ft | 526 kts | 4° |
| 2026-04-22 03:47 | 6.27765 | -73.74120 | 31773 ft | 527 kts | 4° |
| 2026-04-22 03:47 | 6.35096 | -73.73656 | 31741 ft | 527 kts | 4° |
| 2026-04-22 03:48 | 6.42479 | -73.73186 | 31682 ft | 528 kts | 4° |
| 2026-04-22 03:48 | 6.49844 | -73.72716 | 31640 ft | 528 kts | 4° |
| 2026-04-22 03:49 | 6.57190 | -73.72250 | 31645 ft | 528 kts | 4° |
| 2026-04-22 03:49 | 6.64538 | -73.71783 | 31619 ft | 528 kts | 4° |
| 2026-04-22 03:50 | 6.71916 | -73.71314 | 31595 ft | 528 kts | 4° |
| 2026-04-22 03:50 | 6.79287 | -73.70847 | 31598 ft | 527 kts | 4° |
| 2026-04-22 03:51 | 6.86634 | -73.70377 | 31582 ft | 527 kts | 4° |
| 2026-04-22 03:51 | 6.94000 | -73.69909 | 31556 ft | 528 kts | 4° |
| 2026-04-22 03:52 | 7.01361 | -73.69440 | 31542 ft | 528 kts | 4° |
| 2026-04-22 03:52 | 7.08707 | -73.68973 | 31535 ft | 527 kts | 4° |
| 2026-04-22 03:53 | 7.16060 | -73.68505 | 31532 ft | 527 kts | 4° |
| 2026-04-22 03:53 | 7.23383 | -73.68039 | 31546 ft | 527 kts | 4° |
| 2026-04-22 03:54 | 7.30737 | -73.67568 | 31541 ft | 527 kts | 4° |
| 2026-04-22 03:54 | 7.38111 | -73.67098 | 31554 ft | 526 kts | 4° |
| 2026-04-22 03:55 | 7.45421 | -73.66633 | 31550 ft | 526 kts | 4° |
| 2026-04-22 03:55 | 7.52812 | -73.66160 | 31553 ft | 527 kts | 4° |
| 2026-04-22 03:56 | 7.60146 | -73.65691 | 31542 ft | 527 kts | 4° |
| 2026-04-22 03:56 | 7.67510 | -73.65223 | 31565 ft | 527 kts | 4° |
| 2026-04-22 03:57 | 7.74820 | -73.64754 | 31551 ft | 527 kts | 4° |
| 2026-04-22 03:57 | 7.82177 | -73.64285 | 31550 ft | 527 kts | 4° |
| 2026-04-22 03:58 | 7.89557 | -73.63813 | 31548 ft | 528 kts | 4° |
| 2026-04-22 03:58 | 7.96899 | -73.63344 | 31553 ft | 528 kts | 4° |
| 2026-04-22 03:59 | 8.04289 | -73.62871 | 31561 ft | 528 kts | 4° |
| 2026-04-22 03:59 | 8.11651 | -73.62400 | 31551 ft | 529 kts | 4° |
| 2026-04-22 04:00 | 8.18961 | -73.62833 | 31545 ft | 529 kts | 341° |
| 2026-04-22 04:00 | 8.22265 | -73.64542 | 31538 ft | 528 kts | 324° |
| 2026-04-22 04:00 | 8.24925 | -73.67065 | 31587 ft | 526 kts | 311° |
| 2026-04-22 04:01 | 8.30099 | -73.72356 | 31550 ft | 527 kts | 314° |
| 2026-04-22 04:01 | 8.35316 | -73.77580 | 31524 ft | 528 kts | 314° |
| 2026-04-22 04:02 | 8.40554 | -73.82816 | 31515 ft | 529 kts | 314° |
| 2026-04-22 04:02 | 8.45812 | -73.88083 | 31514 ft | 530 kts | 314° |
| 2026-04-22 04:03 | 8.51067 | -73.93344 | 31492 ft | 531 kts | 314° |
| 2026-04-22 04:03 | 8.56312 | -73.98599 | 31487 ft | 531 kts | 314° |
| 2026-04-22 04:04 | 8.61562 | -74.03863 | 31489 ft | 531 kts | 314° |
| 2026-04-22 04:04 | 8.66803 | -74.09118 | 31485 ft | 531 kts | 314° |
| 2026-04-22 04:05 | 8.72051 | -74.14381 | 31480 ft | 532 kts | 314° |
| 2026-04-22 04:05 | 8.77320 | -74.19668 | 31475 ft | 532 kts | 314° |
| 2026-04-22 04:06 | 8.82541 | -74.24912 | 31472 ft | 532 kts | 314° |
| 2026-04-22 04:06 | 8.87796 | -74.30190 | 31467 ft | 532 kts | 314° |
| 2026-04-22 04:07 | 8.93069 | -74.35489 | 31467 ft | 531 kts | 314° |
| 2026-04-22 04:07 | 8.98302 | -74.40748 | 31464 ft | 531 kts | 314° |
| 2026-04-22 04:08 | 9.03556 | -74.46030 | 31463 ft | 531 kts | 314° |
| 2026-04-22 04:08 | 9.08790 | -74.51297 | 31468 ft | 531 kts | 314° |
| 2026-04-22 04:09 | 9.14099 | -74.56641 | 31470 ft | 531 kts | 314° |
| 2026-04-22 04:09 | 9.19364 | -74.61941 | 31473 ft | 530 kts | 314° |
| 2026-04-22 04:10 | 9.24599 | -74.67216 | 31478 ft | 530 kts | 314° |
| 2026-04-22 04:10 | 9.29843 | -74.72502 | 31489 ft | 519 kts | 314° |
| 2026-04-22 04:11 | 9.32307 | -74.74985 | 31457 ft | 480 kts | 314° |
| 2026-04-22 04:11 | 9.34578 | -74.77274 | 31430 ft | 446 kts | 314° |
| 2026-04-22 04:11 | 9.36738 | -74.79453 | 30959 ft | 427 kts | 314° |
| 2026-04-22 04:11 | 9.38793 | -74.81525 | 30268 ft | 416 kts | 314° |
| 2026-04-22 04:12 | 9.40810 | -74.83562 | 29587 ft | 406 kts | 313° |
| 2026-04-22 04:12 | 9.42780 | -74.85551 | 28910 ft | 396 kts | 314° |
| 2026-04-22 04:12 | 9.44703 | -74.87496 | 28247 ft | 387 kts | 314° |
| 2026-04-22 04:12 | 9.46607 | -74.89417 | 27585 ft | 380 kts | 314° |
| 2026-04-22 04:13 | 9.48436 | -74.91267 | 26937 ft | 373 kts | 314° |
| 2026-04-22 04:13 | 9.50250 | -74.93102 | 26289 ft | 367 kts | 315° |
| 2026-04-22 04:13 | 9.52054 | -74.94923 | 25635 ft | 361 kts | 315° |
| 2026-04-22 04:13 | 9.53804 | -74.96693 | 24994 ft | 356 kts | 315° |
| 2026-04-22 04:14 | 9.55561 | -74.98467 | 24344 ft | 352 kts | 316° |
| 2026-04-22 04:14 | 9.57278 | -75.00201 | 23705 ft | 348 kts | 316° |
| 2026-04-22 04:14 | 9.58970 | -75.01911 | 23081 ft | 344 kts | 316° |
| 2026-04-22 04:14 | 9.60649 | -75.03607 | 22458 ft | 341 kts | 316° |
| 2026-04-22 04:15 | 9.62325 | -75.05303 | 21854 ft | 338 kts | 316° |
| 2026-04-22 04:15 | 9.63995 | -75.06982 | 21254 ft | 335 kts | 316° |
| 2026-04-22 04:15 | 9.65630 | -75.08635 | 20656 ft | 331 kts | 316° |
| 2026-04-22 04:15 | 9.67243 | -75.10267 | 20057 ft | 328 kts | 316° |
| 2026-04-22 04:16 | 9.68852 | -75.11891 | 19455 ft | 325 kts | 316° |
| 2026-04-22 04:16 | 9.72022 | -75.15098 | 18250 ft | 319 kts | 316° |
| 2026-04-22 04:16 | 9.73602 | -75.16663 | 17640 ft | 316 kts | 320° |
| 2026-04-22 04:17 | 9.75385 | -75.17916 | 17044 ft | 312 kts | 328° |
| 2026-04-22 04:17 | 9.77192 | -75.19112 | 16439 ft | 309 kts | 327° |
| 2026-04-22 04:17 | 9.78984 | -75.20306 | 15839 ft | 306 kts | 327° |
| 2026-04-22 04:17 | 9.80734 | -75.21474 | 15392 ft | 297 kts | 327° |
| 2026-04-22 04:18 | 9.82437 | -75.22609 | 14940 ft | 291 kts | 327° |
| 2026-04-22 04:18 | 9.84106 | -75.23727 | 14487 ft | 285 kts | 327° |
| 2026-04-22 04:18 | 9.85754 | -75.24829 | 14029 ft | 280 kts | 328° |
| 2026-04-22 04:18 | 9.87355 | -75.25899 | 13577 ft | 275 kts | 327° |
| 2026-04-22 04:19 | 9.88958 | -75.26971 | 13119 ft | 272 kts | 327° |
| 2026-04-22 04:19 | 9.90527 | -75.28018 | 12665 ft | 268 kts | 328° |
| 2026-04-22 04:19 | 9.92072 | -75.29050 | 12216 ft | 266 kts | 327° |
| 2026-04-22 04:19 | 9.93611 | -75.30079 | 11763 ft | 263 kts | 327° |
| 2026-04-22 04:20 | 9.95130 | -75.31096 | 11311 ft | 261 kts | 327° |
| 2026-04-22 04:20 | 9.96637 | -75.32104 | 10857 ft | 259 kts | 327° |
| 2026-04-22 04:20 | 9.98133 | -75.33104 | 10402 ft | 257 kts | 327° |
| 2026-04-22 04:20 | 9.99629 | -75.34106 | 9949 ft | 255 kts | 327° |
| 2026-04-22 04:21 | 10.01096 | -75.35094 | 9497 ft | 254 kts | 327° |
| 2026-04-22 04:21 | 10.02560 | -75.36075 | 9046 ft | 252 kts | 327° |
| 2026-04-22 04:21 | 10.04038 | -75.37063 | 8596 ft | 251 kts | 327° |
| 2026-04-22 04:21 | 10.05476 | -75.38029 | 8146 ft | 250 kts | 327° |
| 2026-04-22 04:22 | 10.06937 | -75.39007 | 7685 ft | 249 kts | 327° |
| 2026-04-22 04:22 | 10.08377 | -75.39971 | 7229 ft | 247 kts | 328° |
| 2026-04-22 04:22 | 10.09798 | -75.40922 | 6776 ft | 246 kts | 328° |
| 2026-04-22 04:22 | 10.11248 | -75.41890 | 6317 ft | 246 kts | 328° |
| 2026-04-22 04:23 | 10.12665 | -75.42842 | 5874 ft | 248 kts | 328° |
| 2026-04-22 04:23 | 10.14133 | -75.43823 | 5417 ft | 250 kts | 328° |
| 2026-04-22 04:23 | 10.15574 | -75.44793 | 4972 ft | 251 kts | 328° |
| 2026-04-22 04:23 | 10.17040 | -75.45771 | 4518 ft | 252 kts | 328° |
| 2026-04-22 04:24 | 10.18503 | -75.46755 | 4065 ft | 251 kts | 328° |
| 2026-04-22 04:24 | 10.19962 | -75.47729 | 3609 ft | 250 kts | 328° |
| 2026-04-22 04:24 | 10.21404 | -75.48698 | 3158 ft | 249 kts | 328° |
| 2026-04-22 04:24 | 10.22818 | -75.49646 | 3007 ft | 233 kts | 329° |
| 2026-04-22 04:25 | 10.24128 | -75.50529 | 2978 ft | 215 kts | 329° |
| 2026-04-22 04:25 | 10.25325 | -75.51327 | 2971 ft | 200 kts | 329° |
| 2026-04-22 04:25 | 10.26487 | -75.52084 | 2984 ft | 194 kts | 337° |
| 2026-04-22 04:25 | 10.27767 | -75.52212 | 3007 ft | 182 kts | 15° |
| 2026-04-22 04:26 | 10.29021 | -75.51977 | 2995 ft | 181 kts | 7° |
| 2026-04-22 04:26 | 10.30271 | -75.51887 | 2991 ft | 179 kts | 7° |
| 2026-04-22 04:26 | 10.31513 | -75.51796 | 2821 ft | 180 kts | 6° |
| 2026-04-22 04:26 | 10.32749 | -75.51749 | 2462 ft | 170 kts | 5° |
| 2026-04-22 04:27 | 10.33903 | -75.51704 | 2110 ft | 163 kts | 5° |
| 2026-04-22 04:27 | 10.35027 | -75.51656 | 1776 ft | 158 kts | 5° |
| 2026-04-22 04:27 | 10.36099 | -75.51615 | 1451 ft | 150 kts | 5° |
| 2026-04-22 04:27 | 10.37112 | -75.51576 | 1192 ft | 134 kts | 5° |
| 2026-04-22 04:28 | 10.38006 | -75.51540 | 992 ft | 126 kts | 4° |
| 2026-04-22 04:28 | 10.38961 | -75.51494 | 847 ft | 145 kts | 2° |
| 2026-04-22 04:28 | 10.40001 | -75.51461 | 650 ft | 151 kts | 6° |
| 2026-04-22 04:28 | 10.41056 | -75.51421 | 446 ft | 152 kts | 2° |
| 2026-04-22 04:29 | 10.42119 | -75.51373 | 242 ft | 149 kts | 1° |
| 2026-04-22 04:29 | 10.43133 | -75.51340 | 61 ft | 144 kts | 4° |
| 2026-04-22 04:29 | 10.44094 | -75.51298 | 19 ft | 122 kts | 6° |
| 2026-04-22 04:29 | 10.44715 | -75.51269 | 17 ft | 57 kts | 360° |
| 2026-04-22 04:30 | 10.45085 | -75.51254 | 17 ft | 47 kts | 360° |
| 2026-04-22 04:30 | 10.45219 | -75.51257 | 16 ft | 12 kts | 82° |
| 2026-04-22 04:30 | 10.45141 | -75.51244 | 16 ft | 13 kts | 186° |
| 2026-04-22 04:30 | 10.45040 | -75.51255 | 17 ft | 15 kts | 188° |
| 2026-04-22 04:31 | 10.44926 | -75.51261 | 17 ft | 17 kts | 181° |
| 2026-04-22 04:31 | 10.44802 | -75.51263 | 17 ft | 17 kts | 184° |
| 2026-04-22 04:31 | 10.44695 | -75.51271 | 17 ft | 4 kts | 176° |
| 2026-04-22 04:31 | 10.44671 | -75.51244 | 16 ft | 6 kts | 101° |
| 2026-04-22 04:32 | 10.44668 | -75.51195 | 16 ft | 7 kts | 93° |
| 2026-04-22 04:32 | 10.44666 | -75.51136 | 16 ft | 8 kts | 92° |
| 2026-04-22 04:32 | 10.44646 | -75.51080 | 16 ft | 9 kts | 144° |
| 2026-04-22 04:32 | 10.44613 | -75.51065 | 16 ft | 5 kts | 173° |
| 2026-04-22 04:33 | 10.44576 | -75.51063 | 16 ft | 5 kts | 186° |
| 2026-04-22 04:33 | 10.44555 | -75.51086 | 16 ft | 5 kts | 271° |
| 2026-04-22 04:33 | 10.44555 | -75.51092 | 16 ft | 0 kts | 272° |